Orient, SD (57467)

7:45 PM CST on February 19, 2017 (GMT -0600)
MK3FU | | Change Station

Elev 1567 ft 45.03 °N, 99.11 °W | Updated 5 minutes ago

Mostly Cloudy
Mostly Cloudy
50.0 °F
Feels Like 48 °F
N
5.0
Wind Variable Wind from South

Today
High -- | Low -- °F
--% Chance of Precip.
Yesterday
High -- | Low -- °F
Precip. -- in
Pressure 29.59 in
Visibility 10.0 miles
Clouds Clear
Windchill 48 °F
Dew Point 43 °F
Humidity 76%
Rainfall 0.00 in
Snow Depth Not available.
7:30 AM 6:10 PM
Last Quarter, 38% visible
METAR KABR 200053Z AUTO 16012KT 10SM CLR 11/08 A2957 RMK AO2 SLP018 T01060078
Pressure 29.59 in
Visibility 10.0 miles
Clouds Clear
Windchill 48 °F
Dew Point 43 °F
Humidity 76%
Rainfall 0.00 in
Snow Depth Not available.
7:30 AM 6:10 PM
Last Quarter, 38% visible
METAR KABR 200053Z AUTO 16012KT 10SM CLR 11/08 A2957 RMK AO2 SLP018 T01060078

Get Your Daily Forecast Email!

Thanks for signing up!

Be on the lookout for a verification email in your inbox.

You'll start receiving the daily forecast at 8 AM.

×

10-Day Weather Forecast

Almanac

Astronomy

Feb. 19, 2017 Rise Set
Actual Time
Civil Twilight
Nautical Twilight
Astronomical Twilight
Moon
Length of Visible Light
Length of Day
Tomorrow will be .
, % of the Moon is Illuminated

Today's Extremes

State Highs State Lows

Community

WunderPhotos

Upload Photos

1,962,540 photos uploaded!

WunderBlog® & News

Nearby

Air Quality

  Air Quality AQ Index Pollutant
Not available.

Snow Depth

Station Depth Elevation

Earthquake Activity

City Distance Mag. Time & Date
Minimum magnitude displayed is 2.5.

Coastal Water Temperatures

Place Temperature

Stations

Nearby Weather Stations

Station Location Temp. Windchill Dew Point Humidity Wind Precip. Elev Updated Type
                   

Watches & Warnings

There are currently no watches in effect.